sensor_id;sensor_type;location;lat;lon;timestamp;pressure;altitude;pressure_sealevel;temperature;humidity
72685;BME280;61365;52.162;4.500;2023-04-08T00:01:42;102289.63;;;9.81;82.65
72685;BME280;61365;52.162;4.500;2023-04-08T00:04:08;102282.91;;;9.59;84.00
72685;BME280;61365;52.162;4.500;2023-04-08T00:06:35;102286.28;;;9.53;83.81
72685;BME280;61365;52.162;4.500;2023-04-08T00:09:01;102286.63;;;9.66;84.46
72685;BME280;61365;52.162;4.500;2023-04-08T00:11:28;102282.63;;;9.46;85.50
72685;BME280;61365;52.162;4.500;2023-04-08T00:13:55;102280.94;;;9.50;85.47
72685;BME280;61365;52.162;4.500;2023-04-08T00:16:21;102277.09;;;9.69;84.55
72685;BME280;61365;52.162;4.500;2023-04-08T00:18:47;102284.19;;;9.40;86.26
72685;BME280;61365;52.162;4.500;2023-04-08T00:21:13;102280.53;;;9.35;88.44
72685;BME280;61365;52.162;4.500;2023-04-08T00:23:42;102281.03;;;9.53;88.00
72685;BME280;61365;52.162;4.500;2023-04-08T00:26:08;102288.19;;;9.27;88.99
72685;BME280;61365;52.162;4.500;2023-04-08T00:28:34;102283.06;;;9.30;88.95
72685;BME280;61365;52.162;4.500;2023-04-08T00:31:01;102279.44;;;9.26;89.00
72685;BME280;61365;52.162;4.500;2023-04-08T00:33:27;102282.91;;;9.25;89.69
72685;BME280;61365;52.162;4.500;2023-04-08T00:35:53;102286.53;;;9.30;90.18
72685;BME280;61365;52.162;4.500;2023-04-08T00:38:19;102288.31;;;9.31;90.29
72685;BME280;61365;52.162;4.500;2023-04-08T00:40:45;102283.91;;;9.30;90.46
72685;BME280;61365;52.162;4.500;2023-04-08T00:43:11;102286.50;;;9.29;90.37
72685;BME280;61365;52.162;4.500;2023-04-08T00:45:38;102290.66;;;9.53;89.58
72685;BME280;61365;52.162;4.500;2023-04-08T00:48:04;102286.41;;;9.58;87.88
72685;BME280;61365;52.162;4.500;2023-04-08T00:50:30;102295.19;;;9.60;86.36
72685;BME280;61365;52.162;4.500;2023-04-08T00:52:56;102293.94;;;9.45;86.98
72685;BME280;61365;52.162;4.500;2023-04-08T00:55:23;102297.88;;;9.29;88.71
72685;BME280;61365;52.162;4.500;2023-04-08T00:57:49;102285.78;;;9.35;89.21
72685;BME280;61365;52.162;4.500;2023-04-08T01:00:15;102297.03;;;9.30;89.78
72685;BME280;61365;52.162;4.500;2023-04-08T01:02:44;102294.31;;;9.27;89.94
72685;BME280;61365;52.162;4.500;2023-04-08T01:05:24;102295.13;;;9.25;90.32
72685;BME280;61365;52.162;4.500;2023-04-08T01:07:58;102292.50;;;9.25;90.65
72685;BME280;61365;52.162;4.500;2023-04-08T01:10:30;102296.94;;;9.27;90.89
72685;BME280;61365;52.162;4.500;2023-04-08T01:13:02;102293.44;;;9.27;91.10
72685;BME280;61365;52.162;4.500;2023-04-08T01:15:34;102292.41;;;9.22;91.43
72685;BME280;61365;52.162;4.500;2023-04-08T01:18:04;102301.28;;;9.27;91.61
72685;BME280;61365;52.162;4.500;2023-04-08T01:20:33;102300.56;;;9.32;91.46
72685;BME280;61365;52.162;4.500;2023-04-08T01:25:29;102308.13;;;9.22;91.07
72685;BME280;61365;52.162;4.500;2023-04-08T01:27:57;102303.00;;;9.25;91.14
72685;BME280;61365;52.162;4.500;2023-04-08T01:30:25;102299.63;;;9.30;91.19
72685;BME280;61365;52.162;4.500;2023-04-08T01:32:55;102299.25;;;9.16;90.60
72685;BME280;61365;52.162;4.500;2023-04-08T01:35:22;102300.47;;;9.28;90.97
72685;BME280;61365;52.162;4.500;2023-04-08T01:37:49;102299.44;;;9.23;90.68
72685;BME280;61365;52.162;4.500;2023-04-08T01:40:17;102297.56;;;9.19;90.76
72685;BME280;61365;52.162;4.500;2023-04-08T01:42:45;102297.03;;;9.30;90.94
72685;BME280;61365;52.162;4.500;2023-04-08T01:45:14;102297.22;;;9.38;90.16
72685;BME280;61365;52.162;4.500;2023-04-08T01:47:42;102302.06;;;9.24;89.96
72685;BME280;61365;52.162;4.500;2023-04-08T01:50:12;102301.75;;;9.12;90.32
72685;BME280;61365;52.162;4.500;2023-04-08T01:52:40;102302.69;;;9.14;90.27
72685;BME280;61365;52.162;4.500;2023-04-08T01:55:09;102303.66;;;9.18;90.83
72685;BME280;61365;52.162;4.500;2023-04-08T01:57:36;102308.84;;;9.16;90.39
72685;BME280;61365;52.162;4.500;2023-04-08T02:00:07;102307.84;;;9.12;90.50
72685;BME280;61365;52.162;4.500;2023-04-08T02:02:35;102301.75;;;9.12;91.01
72685;BME280;61365;52.162;4.500;2023-04-08T02:05:03;102308.94;;;9.19;90.61
72685;BME280;61365;52.162;4.500;2023-04-08T02:07:30;102307.00;;;9.12;90.89
72685;BME280;61365;52.162;4.500;2023-04-08T02:09:56;102306.38;;;9.22;91.07
72685;BME280;61365;52.162;4.500;2023-04-08T02:12:22;102308.00;;;9.17;90.99
72685;BME280;61365;52.162;4.500;2023-04-08T02:14:48;102308.69;;;9.11;91.13
72685;BME280;61365;52.162;4.500;2023-04-08T02:17:27;102303.66;;;9.18;91.45
72685;BME280;61365;52.162;4.500;2023-04-08T02:20:02;102307.94;;;9.15;91.33
72685;BME280;61365;52.162;4.500;2023-04-08T02:22:48;102303.44;;;9.10;91.17
72685;BME280;61365;52.162;4.500;2023-04-08T02:25:54;102305.41;;;9.17;90.96
72685;BME280;61365;52.162;4.500;2023-04-08T02:28:21;102304.59;;;9.21;90.73
72685;BME280;61365;52.162;4.500;2023-04-08T02:30:51;102310.38;;;9.09;90.51
72685;BME280;61365;52.162;4.500;2023-04-08T02:33:20;102307.75;;;9.08;90.88
72685;BME280;61365;52.162;4.500;2023-04-08T02:35:48;102315.59;;;9.08;91.15
72685;BME280;61365;52.162;4.500;2023-04-08T02:38:16;102307.94;;;9.15;90.91
72685;BME280;61365;52.162;4.500;2023-04-08T02:40:42;102319.38;;;9.18;90.50
72685;BME280;61365;52.162;4.500;2023-04-08T02:43:08;102317.22;;;9.35;88.97
72685;BME280;61365;52.162;4.500;2023-04-08T02:45:37;102319.75;;;9.31;88.80
72685;BME280;61365;52.162;4.500;2023-04-08T02:48:06;102321.34;;;9.26;88.51
72685;BME280;61365;52.162;4.500;2023-04-08T02:50:32;102317.47;;;9.12;88.73
72685;BME280;61365;52.162;4.500;2023-04-08T02:52:58;102324.81;;;9.25;88.77
72685;BME280;61365;52.162;4.500;2023-04-08T02:55:24;102314.63;;;9.04;88.92
72685;BME280;61365;52.162;4.500;2023-04-08T02:57:50;102325.78;;;8.98;89.62
72685;BME280;61365;52.162;4.500;2023-04-08T03:00:17;102330.06;;;8.95;89.68
72685;BME280;61365;52.162;4.500;2023-04-08T03:02:43;102330.78;;;8.89;89.54
72685;BME280;61365;52.162;4.500;2023-04-08T03:05:09;102327.34;;;8.92;89.98
72685;BME280;61365;52.162;4.500;2023-04-08T03:07:35;102331.38;;;8.80;90.56
72685;BME280;61365;52.162;4.500;2023-04-08T03:10:02;102331.28;;;8.77;91.42
72685;BME280;61365;52.162;4.500;2023-04-08T03:12:28;102334.00;;;8.80;91.47
72685;BME280;61365;52.162;4.500;2023-04-08T03:14:56;102332.38;;;8.85;91.69
72685;BME280;61365;52.162;4.500;2023-04-08T03:17:22;102335.84;;;8.84;90.94
72685;BME280;61365;52.162;4.500;2023-04-08T03:19:48;102335.06;;;8.87;91.40
72685;BME280;61365;52.162;4.500;2023-04-08T03:22:14;102337.03;;;8.94;91.21
72685;BME280;61365;52.162;4.500;2023-04-08T03:24:40;102333.59;;;9.27;88.69
72685;BME280;61365;52.162;4.500;2023-04-08T03:27:06;102329.81;;;9.16;88.12
72685;BME280;61365;52.162;4.500;2023-04-08T03:29:33;102336.25;;;8.98;87.79
72685;BME280;61365;52.162;4.500;2023-04-08T03:31:59;102338.00;;;8.69;88.88
72685;BME280;61365;52.162;4.500;2023-04-08T03:34:25;102338.75;;;8.65;89.95
72685;BME280;61365;52.162;4.500;2023-04-08T03:36:51;102345.41;;;8.55;91.16
72685;BME280;61365;52.162;4.500;2023-04-08T03:39:18;102340.66;;;8.43;91.75
72685;BME280;61365;52.162;4.500;2023-04-08T03:41:44;102338.63;;;8.34;92.47
72685;BME280;61365;52.162;4.500;2023-04-08T03:44:10;102340.84;;;8.22;93.10
72685;BME280;61365;52.162;4.500;2023-04-08T03:46:36;102349.28;;;8.13;93.63
72685;BME280;61365;52.162;4.500;2023-04-08T03:49:02;102351.25;;;8.48;93.00
72685;BME280;61365;52.162;4.500;2023-04-08T03:51:29;102348.41;;;8.40;91.52
72685;BME280;61365;52.162;4.500;2023-04-08T03:53:55;102361.03;;;8.52;89.66
72685;BME280;61365;52.162;4.500;2023-04-08T03:56:21;102363.00;;;8.33;90.02
72685;BME280;61365;52.162;4.500;2023-04-08T03:58:47;102365.13;;;8.18;90.72
72685;BME280;61365;52.162;4.500;2023-04-08T04:01:13;102357.19;;;8.15;90.97
72685;BME280;61365;52.162;4.500;2023-04-08T04:03:39;102362.25;;;8.10;91.84
72685;BME280;61365;52.162;4.500;2023-04-08T04:06:05;102365.97;;;8.17;91.74
72685;BME280;61365;52.162;4.500;2023-04-08T04:08:32;102367.22;;;8.02;92.48
72685;BME280;61365;52.162;4.500;2023-04-08T04:10:58;102361.59;;;7.90;92.91
72685;BME280;61365;52.162;4.500;2023-04-08T04:13:24;102368.50;;;7.89;93.54
72685;BME280;61365;52.162;4.500;2023-04-08T04:15:51;102369.47;;;7.91;93.47
72685;BME280;61365;52.162;4.500;2023-04-08T04:18:17;102364.94;;;7.87;93.13
72685;BME280;61365;52.162;4.500;2023-04-08T04:20:43;102382.59;;;7.69;93.13
72685;BME280;61365;52.162;4.500;2023-04-08T04:23:09;102376.06;;;7.56;94.09
72685;BME280;61365;52.162;4.500;2023-04-08T04:25:35;102382.00;;;7.51;95.33
72685;BME280;61365;52.162;4.500;2023-04-08T04:28:01;102382.94;;;7.54;95.54
72685;BME280;61365;52.162;4.500;2023-04-08T04:30:27;102381.13;;;7.51;95.95
72685;BME280;61365;52.162;4.500;2023-04-08T04:32:54;102383.66;;;7.49;95.56
72685;BME280;61365;52.162;4.500;2023-04-08T04:35:21;102388.13;;;7.52;95.32
72685;BME280;61365;52.162;4.500;2023-04-08T04:37:47;102382.72;;;7.47;94.83
72685;BME280;61365;52.162;4.500;2023-04-08T04:40:14;102395.09;;;7.29;94.91
72685;BME280;61365;52.162;4.500;2023-04-08T04:42:41;102404.41;;;7.22;95.96
72685;BME280;61365;52.162;4.500;2023-04-08T04:45:07;102399.75;;;7.38;94.98
72685;BME280;61365;52.162;4.500;2023-04-08T04:47:34;102397.00;;;7.10;94.95
72685;BME280;61365;52.162;4.500;2023-04-08T04:50:00;102395.09;;;7.29;95.68
72685;BME280;61365;52.162;4.500;2023-04-08T04:52:27;102411.75;;;7.32;96.07
72685;BME280;61365;52.162;4.500;2023-04-08T04:54:53;102401.44;;;7.35;95.89
72685;BME280;61365;52.162;4.500;2023-04-08T04:57:19;102407.00;;;7.45;95.90
72685;BME280;61365;52.162;4.500;2023-04-08T04:59:45;102407.72;;;7.41;94.96
72685;BME280;61365;52.162;4.500;2023-04-08T05:02:11;102408.03;;;7.26;95.28
72685;BME280;61365;52.162;4.500;2023-04-08T05:04:37;102413.66;;;7.36;95.44
72685;BME280;61365;52.162;4.500;2023-04-08T05:07:03;102412.78;;;7.36;95.72
72685;BME280;61365;52.162;4.500;2023-04-08T05:09:29;102418.25;;;7.42;95.43
72685;BME280;61365;52.162;4.500;2023-04-08T05:11:56;102417.34;;;7.42;95.76
72685;BME280;61365;52.162;4.500;2023-04-08T05:14:22;102418.88;;;7.36;95.61
72685;BME280;61365;52.162;4.500;2023-04-08T05:16:48;102419.81;;;7.39;95.59
72685;BME280;61365;52.162;4.500;2023-04-08T05:19:14;102416.78;;;7.50;95.55
72685;BME280;61365;52.162;4.500;2023-04-08T05:21:40;102424.19;;;7.87;93.30
72685;BME280;61365;52.162;4.500;2023-04-08T05:24:06;102425.28;;;7.93;91.66
72685;BME280;61365;52.162;4.500;2023-04-08T05:26:32;102424.19;;;7.62;92.20
72685;BME280;61365;52.162;4.500;2023-04-08T05:28:59;102422.91;;;7.75;91.97
72685;BME280;61365;52.162;4.500;2023-04-08T05:31:25;102428.94;;;7.73;92.03
72685;BME280;61365;52.162;4.500;2023-04-08T05:33:51;102424.50;;;7.47;92.30
72685;BME280;61365;52.162;4.500;2023-04-08T05:36:17;102433.69;;;7.60;93.58
72685;BME280;61365;52.162;4.500;2023-04-08T05:38:43;102439.38;;;7.73;92.80
72685;BME280;61365;52.162;4.500;2023-04-08T05:41:10;102436.66;;;7.70;93.01
72685;BME280;61365;52.162;4.500;2023-04-08T05:43:36;102443.09;;;8.04;90.23
72685;BME280;61365;52.162;4.500;2023-04-08T05:46:05;102448.38;;;8.05;87.92
72685;BME280;61365;52.162;4.500;2023-04-08T05:48:32;102463.00;;;7.76;87.49
72685;BME280;61365;52.162;4.500;2023-04-08T05:50:59;102456.50;;;7.42;89.48
72685;BME280;61365;52.162;4.500;2023-04-08T05:53:25;102460.44;;;7.30;88.32
72685;BME280;61365;52.162;4.500;2023-04-08T05:55:51;102461.78;;;7.20;89.87
72685;BME280;61365;52.162;4.500;2023-04-08T05:58:17;102455.84;;;7.47;88.88
72685;BME280;61365;52.162;4.500;2023-04-08T06:00:43;102465.66;;;7.53;89.97
72685;BME280;61365;52.162;4.500;2023-04-08T06:03:10;102461.16;;;7.49;89.40
72685;BME280;61365;52.162;4.500;2023-04-08T06:05:36;102460.19;;;7.47;90.50
72685;BME280;61365;52.162;4.500;2023-04-08T06:08:02;102465.97;;;7.38;90.40
72685;BME280;61365;52.162;4.500;2023-04-08T06:10:28;102472.19;;;7.89;88.17
72685;BME280;61365;52.162;4.500;2023-04-08T06:12:54;102470.22;;;7.83;87.21
72685;BME280;61365;52.162;4.500;2023-04-08T06:15:20;102477.66;;;7.72;88.06
72685;BME280;61365;52.162;4.500;2023-04-08T06:17:49;102476.50;;;7.64;88.59
72685;BME280;61365;52.162;4.500;2023-04-08T06:20:15;102481.97;;;7.47;88.65
72685;BME280;61365;52.162;4.500;2023-04-08T06:22:41;102480.06;;;7.66;89.81
72685;BME280;61365;52.162;4.500;2023-04-08T06:25:07;102482.69;;;7.66;90.22
72685;BME280;61365;52.162;4.500;2023-04-08T06:27:33;102483.13;;;7.54;90.01
72685;BME280;61365;52.162;4.500;2023-04-08T06:29:59;102488.03;;;7.69;90.37
72685;BME280;61365;52.162;4.500;2023-04-08T06:32:26;102486.91;;;8.11;89.07
72685;BME280;61365;52.162;4.500;2023-04-08T06:34:52;102489.53;;;8.11;87.94
72685;BME280;61365;52.162;4.500;2023-04-08T06:37:18;102492.59;;;7.99;88.49
72685;BME280;61365;52.162;4.500;2023-04-08T06:39:44;102491.88;;;8.03;88.07
72685;BME280;61365;52.162;4.500;2023-04-08T06:42:10;102499.75;;;8.53;85.41
72685;BME280;61365;52.162;4.500;2023-04-08T06:44:36;102499.19;;;8.62;82.29
72685;BME280;61365;52.162;4.500;2023-04-08T06:47:02;102504.81;;;8.49;82.67
72685;BME280;61365;52.162;4.500;2023-04-08T06:49:28;102507.50;;;8.50;82.31
72685;BME280;61365;52.162;4.500;2023-04-08T06:51:55;102508.44;;;8.28;82.76
72685;BME280;61365;52.162;4.500;2023-04-08T06:54:21;102513.38;;;7.26;86.28
72685;BME280;61365;52.162;4.500;2023-04-08T06:56:47;102517.25;;;7.59;86.06
72685;BME280;61365;52.162;4.500;2023-04-08T06:59:13;102523.06;;;7.07;86.66
72685;BME280;61365;52.162;4.500;2023-04-08T07:01:39;102527.13;;;7.66;84.57
72685;BME280;61365;52.162;4.500;2023-04-08T07:04:06;102530.19;;;7.12;83.20
72685;BME280;61365;52.162;4.500;2023-04-08T07:06:32;102535.94;;;7.24;84.20
72685;BME280;61365;52.162;4.500;2023-04-08T07:08:58;102531.41;;;7.20;85.94
72685;BME280;61365;52.162;4.500;2023-04-08T07:11:24;102541.41;;;7.53;84.73
72685;BME280;61365;52.162;4.500;2023-04-08T07:13:51;102541.09;;;7.45;83.34
72685;BME280;61365;52.162;4.500;2023-04-08T07:16:17;102549.16;;;7.07;84.71
72685;BME280;61365;52.162;4.500;2023-04-08T07:18:43;102554.22;;;7.03;85.53
72685;BME280;61365;52.162;4.500;2023-04-08T07:21:09;102560.97;;;7.19;84.59
72685;BME280;61365;52.162;4.500;2023-04-08T07:23:36;102560.63;;;6.69;85.02
72685;BME280;61365;52.162;4.500;2023-04-08T07:26:02;102555.38;;;6.88;87.91
72685;BME280;61365;52.162;4.500;2023-04-08T07:28:30;102555.75;;;7.19;86.63
72685;BME280;61365;52.162;4.500;2023-04-08T07:30:56;102549.56;;;6.96;88.04
72685;BME280;61365;52.162;4.500;2023-04-08T07:33:36;102556.06;;;7.05;89.88
72685;BME280;61365;52.162;4.500;2023-04-08T07:36:02;102550.94;;;7.30;89.54
72685;BME280;61365;52.162;4.500;2023-04-08T07:38:28;102555.22;;;7.73;88.21
72685;BME280;61365;52.162;4.500;2023-04-08T07:40:54;102568.56;;;8.26;82.58
72685;BME280;61365;52.162;4.500;2023-04-08T07:43:20;102570.00;;;7.27;84.29
72685;BME280;61365;52.162;4.500;2023-04-08T07:45:46;102562.19;;;7.27;88.83
72685;BME280;61365;52.162;4.500;2023-04-08T07:48:13;102563.56;;;7.40;87.39
72685;BME280;61365;52.162;4.500;2023-04-08T07:50:39;102563.84;;;7.93;85.50
72685;BME280;61365;52.162;4.500;2023-04-08T07:53:05;102566.34;;;7.68;86.08
72685;BME280;61365;52.162;4.500;2023-04-08T07:55:34;102562.50;;;8.52;82.86
72685;BME280;61365;52.162;4.500;2023-04-08T07:58:00;102559.31;;;8.36;83.75
72685;BME280;61365;52.162;4.500;2023-04-08T08:00:26;102564.59;;;8.62;80.53
72685;BME280;61365;52.162;4.500;2023-04-08T08:02:54;102567.81;;;8.79;80.12
72685;BME280;61365;52.162;4.500;2023-04-08T08:05:21;102567.41;;;8.20;82.44
72685;BME280;61365;52.162;4.500;2023-04-08T08:07:47;102575.00;;;8.61;80.83
72685;BME280;61365;52.162;4.500;2023-04-08T08:10:15;102570.66;;;8.13;83.57
72685;BME280;61365;52.162;4.500;2023-04-08T08:12:41;102574.47;;;8.95;80.36
72685;BME280;61365;52.162;4.500;2023-04-08T08:15:07;102575.38;;;8.47;80.56
72685;BME280;61365;52.162;4.500;2023-04-08T08:17:34;102580.41;;;8.17;83.07
72685;BME280;61365;52.162;4.500;2023-04-08T08:20:00;102582.84;;;8.61;84.03
72685;BME280;61365;52.162;4.500;2023-04-08T08:22:26;102579.81;;;9.82;76.81
72685;BME280;61365;52.162;4.500;2023-04-08T08:24:55;102585.78;;;8.94;81.41
72685;BME280;61365;52.162;4.500;2023-04-08T08:27:22;102596.63;;;9.32;81.93
72685;BME280;61365;52.162;4.500;2023-04-08T08:29:49;102594.56;;;9.79;78.66
72685;BME280;61365;52.162;4.500;2023-04-08T08:32:15;102591.22;;;10.13;77.69
72685;BME280;61365;52.162;4.500;2023-04-08T08:34:41;102587.66;;;10.42;75.67
72685;BME280;61365;52.162;4.500;2023-04-08T08:37:07;102593.63;;;10.05;77.29
72685;BME280;61365;52.162;4.500;2023-04-08T08:39:34;102594.03;;;11.55;72.96
72685;BME280;61365;52.162;4.500;2023-04-08T08:42:00;102587.44;;;12.14;69.67
72685;BME280;61365;52.162;4.500;2023-04-08T08:44:26;102592.97;;;12.28;68.80
72685;BME280;61365;52.162;4.500;2023-04-08T08:46:55;102587.72;;;11.49;71.26
72685;BME280;61365;52.162;4.500;2023-04-08T08:49:21;102595.59;;;11.87;70.87
72685;BME280;61365;52.162;4.500;2023-04-08T08:51:48;102595.94;;;12.45;66.36
72685;BME280;61365;52.162;4.500;2023-04-08T08:54:15;102590.78;;;11.67;70.06
72685;BME280;61365;52.162;4.500;2023-04-08T08:56:42;102585.28;;;12.38;66.44
72685;BME280;61365;52.162;4.500;2023-04-08T08:59:08;102590.81;;;12.52;66.89
72685;BME280;61365;52.162;4.500;2023-04-08T09:01:35;102595.88;;;12.41;66.99
72685;BME280;61365;52.162;4.500;2023-04-08T09:04:08;102590.03;;;12.57;66.96
72685;BME280;61365;52.162;4.500;2023-04-08T09:06:45;102584.81;;;12.59;67.29
72685;BME280;61365;52.162;4.500;2023-04-08T09:09:14;102585.06;;;12.73;66.04
72685;BME280;61365;52.162;4.500;2023-04-08T09:11:41;102589.28;;;12.19;67.23
72685;BME280;61365;52.162;4.500;2023-04-08T09:14:19;102573.16;;;12.46;64.17
72685;BME280;61365;52.162;4.500;2023-04-08T09:16:49;102580.66;;;12.27;68.09
72685;BME280;61365;52.162;4.500;2023-04-08T09:19:16;102588.41;;;12.18;68.08
72685;BME280;61365;52.162;4.500;2023-04-08T09:21:42;102586.03;;;12.32;64.35
72685;BME280;61365;52.162;4.500;2023-04-08T09:24:08;102594.47;;;12.15;67.48
72685;BME280;61365;52.162;4.500;2023-04-08T09:26:51;102590.66;;;12.91;64.36
72685;BME280;61365;52.162;4.500;2023-04-08T09:29:17;102598.16;;;12.70;64.93
72685;BME280;61365;52.162;4.500;2023-04-08T09:31:52;102608.38;;;12.08;69.26
72685;BME280;61365;52.162;4.500;2023-04-08T09:34:20;102596.56;;;13.32;63.94
72685;BME280;61365;52.162;4.500;2023-04-08T09:36:48;102595.03;;;13.45;63.61
72685;BME280;61365;52.162;4.500;2023-04-08T09:39:15;102593.63;;;13.13;64.90
72685;BME280;61365;52.162;4.500;2023-04-08T09:41:43;102593.28;;;12.93;65.52
72685;BME280;61365;52.162;4.500;2023-04-08T09:44:12;102588.19;;;13.58;61.70
72685;BME280;61365;52.162;4.500;2023-04-08T09:49:33;102593.13;;;13.37;61.67
72685;BME280;61365;52.162;4.500;2023-04-08T09:52:52;102590.88;;;13.62;60.16
72685;BME280;61365;52.162;4.500;2023-04-08T09:55:06;102596.34;;;13.18;59.28
72685;BME280;61365;52.162;4.500;2023-04-08T10:05:07;102598.41;;;12.84;63.43
72685;BME280;61365;52.162;4.500;2023-04-08T10:07:37;102593.88;;;13.27;60.80
72685;BME280;61365;52.162;4.500;2023-04-08T10:10:04;102586.94;;;13.94;57.85
72685;BME280;61365;52.162;4.500;2023-04-08T10:12:32;102588.81;;;14.03;54.77
72685;BME280;61365;52.162;4.500;2023-04-08T10:17:46;102594.63;;;13.77;56.75
72685;BME280;61365;52.162;4.500;2023-04-08T10:23:01;102586.47;;;13.60;55.71
72685;BME280;61365;52.162;4.500;2023-04-08T10:27:58;102599.41;;;12.90;58.15
72685;BME280;61365;52.162;4.500;2023-04-08T10:32:52;102591.06;;;13.16;60.42
72685;BME280;61365;52.162;4.500;2023-04-08T10:35:34;102586.50;;;13.61;56.44
72685;BME280;61365;52.162;4.500;2023-04-08T10:38:01;102575.56;;;14.00;54.69
72685;BME280;61365;52.162;4.500;2023-04-08T10:40:33;102579.66;;;13.19;56.35
72685;BME280;61365;52.162;4.500;2023-04-08T10:43:03;102575.19;;;13.72;58.88
72685;BME280;61365;52.162;4.500;2023-04-08T10:45:30;102581.88;;;14.13;56.67
72685;BME280;61365;52.162;4.500;2023-04-08T10:47:56;102582.25;;;13.71;57.01
72685;BME280;61365;52.162;4.500;2023-04-08T10:50:38;102578.84;;;13.81;58.09
72685;BME280;61365;52.162;4.500;2023-04-08T10:53:07;102578.03;;;13.86;59.30
72685;BME280;61365;52.162;4.500;2023-04-08T10:55:33;102569.16;;;14.56;53.62
72685;BME280;61365;52.162;4.500;2023-04-08T10:58:06;102573.63;;;14.65;52.12
72685;BME280;61365;52.162;4.500;2023-04-08T11:00:37;102584.31;;;14.69;52.10
72685;BME280;61365;52.162;4.500;2023-04-08T11:03:05;102579.91;;;14.73;52.46
72685;BME280;61365;52.162;4.500;2023-04-08T11:05:33;102581.34;;;14.43;50.55
72685;BME280;61365;52.162;4.500;2023-04-08T11:08:01;102585.09;;;13.87;51.57
72685;BME280;61365;52.162;4.500;2023-04-08T11:10:28;102586.25;;;14.09;54.96
72685;BME280;61365;52.162;4.500;2023-04-08T11:12:55;102576.41;;;14.74;49.62
72685;BME280;61365;52.162;4.500;2023-04-08T11:15:23;102574.50;;;14.64;50.04
72685;BME280;61365;52.162;4.500;2023-04-08T11:17:50;102580.53;;;13.76;51.84
72685;BME280;61365;52.162;4.500;2023-04-08T11:20:16;102588.63;;;13.89;46.41
72685;BME280;61365;52.162;4.500;2023-04-08T11:22:43;102570.84;;;13.72;48.41
72685;BME280;61365;52.162;4.500;2023-04-08T11:25:10;102579.47;;;13.60;50.32
72685;BME280;61365;52.162;4.500;2023-04-08T11:27:36;102571.84;;;13.84;47.38
72685;BME280;61365;52.162;4.500;2023-04-08T11:30:04;102582.00;;;13.56;50.60
72685;BME280;61365;52.162;4.500;2023-04-08T11:32:31;102570.47;;;13.47;51.65
72685;BME280;61365;52.162;4.500;2023-04-08T11:34:59;102576.06;;;13.69;52.77
72685;BME280;61365;52.162;4.500;2023-04-08T11:37:35;102585.75;;;13.70;49.31
72685;BME280;61365;52.162;4.500;2023-04-08T11:40:05;102567.09;;;13.58;50.48
72685;BME280;61365;52.162;4.500;2023-04-08T11:42:35;102577.78;;;13.69;52.37
72685;BME280;61365;52.162;4.500;2023-04-08T11:45:08;102576.69;;;13.52;52.29
72685;BME280;61365;52.162;4.500;2023-04-08T11:47:36;102575.66;;;14.07;51.71
72685;BME280;61365;52.162;4.500;2023-04-08T11:50:03;102573.56;;;13.81;56.40
72685;BME280;61365;52.162;4.500;2023-04-08T11:52:49;102567.97;;;14.27;50.61
72685;BME280;61365;52.162;4.500;2023-04-08T11:55:23;102577.84;;;14.43;53.71
72685;BME280;61365;52.162;4.500;2023-04-08T11:57:52;102575.16;;;14.39;51.60
72685;BME280;61365;52.162;4.500;2023-04-08T12:00:19;102571.09;;;13.94;53.14
72685;BME280;61365;52.162;4.500;2023-04-08T12:02:46;102566.25;;;14.30;51.00
72685;BME280;61365;52.162;4.500;2023-04-08T12:05:16;102578.84;;;14.57;49.98
72685;BME280;61365;52.162;4.500;2023-04-08T12:07:43;102586.91;;;13.92;50.57
72685;BME280;61365;52.162;4.500;2023-04-08T12:10:09;102583.63;;;14.10;50.59
72685;BME280;61365;52.162;4.500;2023-04-08T12:12:39;102578.06;;;13.90;51.63
72685;BME280;61365;52.162;4.500;2023-04-08T12:15:05;102582.28;;;13.74;50.75
72685;BME280;61365;52.162;4.500;2023-04-08T12:17:33;102573.38;;;14.40;50.13
72685;BME280;61365;52.162;4.500;2023-04-08T12:19:59;102573.97;;;14.11;50.98
72685;BME280;61365;52.162;4.500;2023-04-08T12:22:26;102572.31;;;14.22;50.16
72685;BME280;61365;52.162;4.500;2023-04-08T12:24:52;102560.84;;;14.19;48.88
72685;BME280;61365;52.162;4.500;2023-04-08T12:27:18;102555.75;;;14.39;45.02
72685;BME280;61365;52.162;4.500;2023-04-08T12:29:44;102562.94;;;14.49;47.45
72685;BME280;61365;52.162;4.500;2023-04-08T12:32:10;102564.50;;;14.32;47.93
72685;BME280;61365;52.162;4.500;2023-04-08T12:34:37;102564.56;;;14.36;46.38
72685;BME280;61365;52.162;4.500;2023-04-08T12:37:03;102579.75;;;13.84;46.42
72685;BME280;61365;52.162;4.500;2023-04-08T12:39:29;102569.09;;;13.74;48.11
72685;BME280;61365;52.162;4.500;2023-04-08T12:41:55;102571.34;;;13.48;47.12
72685;BME280;61365;52.162;4.500;2023-04-08T12:44:21;102571.53;;;13.60;48.96
72685;BME280;61365;52.162;4.500;2023-04-08T12:46:47;102564.69;;;13.76;47.70
72685;BME280;61365;52.162;4.500;2023-04-08T12:49:13;102566.16;;;14.23;46.99
72685;BME280;61365;52.162;4.500;2023-04-08T12:51:40;102561.75;;;14.21;46.69
72685;BME280;61365;52.162;4.500;2023-04-08T12:54:06;102568.47;;;13.94;44.10
72685;BME280;61365;52.162;4.500;2023-04-08T12:56:33;102557.81;;;13.89;47.99
72685;BME280;61365;52.162;4.500;2023-04-08T12:58:59;102560.69;;;14.05;43.10
72685;BME280;61365;52.162;4.500;2023-04-08T13:01:26;102566.31;;;13.65;44.67
72685;BME280;61365;52.162;4.500;2023-04-08T13:03:52;102567.78;;;14.10;48.97
72685;BME280;61365;52.162;4.500;2023-04-08T13:06:18;102570.59;;;14.26;44.58
72685;BME280;61365;52.162;4.500;2023-04-08T13:08:45;102574.78;;;14.08;43.66
72685;BME280;61365;52.162;4.500;2023-04-08T13:11:11;102568.91;;;13.63;48.94
72685;BME280;61365;52.162;4.500;2023-04-08T13:13:38;102569.00;;;14.40;45.09
72685;BME280;61365;52.162;4.500;2023-04-08T13:16:04;102571.44;;;13.54;45.07
72685;BME280;61365;52.162;4.500;2023-04-08T13:18:30;102564.41;;;13.55;49.02
72685;BME280;61365;52.162;4.500;2023-04-08T13:20:56;102562.09;;;13.79;47.11
72685;BME280;61365;52.162;4.500;2023-04-08T13:23:23;102559.47;;;14.56;43.86